Weather History for Madisonville, KY

Change the Weather History Date:

Sunday, September 22, 2013

  Actual Average (KOWB) Record (KOWB)
Temperature  
Mean Temperature 62 °F -  
Max Temperature 75 °F 79 °F 95 °F (2010)
Min Temperature 50 °F 55 °F 34 °F (1983)
Degree Days  
Heating Degree Days 2    
Growing Degree Days 12 (Base 50)    
Moisture  
Dew Point 53 °F    
Average Humidity 77    
Maximum Humidity 100    
Minimum Humidity 40    
Precipitation  
Precipitation 0.00 in - - ()
Sea Level Pressure  
Sea Level Pressure 29.95 in    
Wind  
Wind Speed 2 mph (NE)    
Max Wind Speed 13 mph    
Max Gust Speed -    
Visibility 10 miles    
Events      
Averages and records for this station are not official NWS values.
T = Trace of Precipitation, MM = Missing Value Source: NWS Daily Summary

Daily Weather History Graph

Daily Weather History Graph

Search for Another Location

Airport:

Trip Planner

Search our weather history database for the weather conditions in past years. The results will help you decide how hot, cold, wet, or windy it might be!

Date:

Astronomy

Sep. 22, 2013 Rise Set
Actual Time 6:37 AM CDT 6:46 PM CDT
Civil Twilight 6:11 AM CDT 7:12 PM CDT
Nautical Twilight 5:41 AM CDT 7:42 PM CDT
Astronomical Twilight 5:10 AM CDT 8:13 PM CDT
Moon 8:41 PM CDT (9/22) 9:52 AM CDT (9/22)
Length of Visible Light 13h 00m
Length of Day
12h 08m
Waning Gibbous, 88% of the Moon is Illuminated
Sep 22
Waning Gibbous
Sep 26
Last Quarter
Oct 4
New
Oct 11
First Quarter
Oct 18
Full

Hourly Weather History & Observations

Time (CDT) Temp. Dew Point Humidity Pressure Visibility Wind Dir Wind Speed Gust Speed Precip Events Conditions
12:15 AM 55.8 °F 53.8 °F 93% 29.91 in 10.0 mi Calm Calm - N/A   Clear
12:35 AM 55.4 °F 53.8 °F 94% 29.91 in 10.0 mi Calm Calm - N/A   Clear
12:55 AM 52.9 °F 52.5 °F 99% 29.91 in 10.0 mi Calm Calm - N/A   Clear
1:15 AM 53.6 °F 52.9 °F 97% 29.91 in 10.0 mi Calm Calm - N/A   Clear
1:35 AM 54.0 °F 53.6 °F 99% 29.91 in 10.0 mi Calm Calm - N/A   Clear
1:55 AM 52.9 °F 52.7 °F 99% 29.92 in 10.0 mi Calm Calm - N/A   Clear
2:15 AM 53.2 °F 53.2 °F 100% 29.92 in 10.0 mi Calm Calm - N/A   Clear
2:35 AM 53.2 °F 53.1 °F 99% 29.91 in 10.0 mi Calm Calm - N/A   Clear
2:55 AM 53.6 °F 52.9 °F 97% 29.91 in 10.0 mi Calm Calm - N/A   Clear
3:15 AM 53.4 °F 52.7 °F 97% 29.92 in 10.0 mi Calm Calm - N/A   Clear
3:35 AM 52.2 °F 52.0 °F 99% 29.92 in 10.0 mi Calm Calm - N/A   Clear
3:55 AM 51.8 °F 51.8 °F 100% 29.92 in 10.0 mi Calm Calm - N/A   Clear
4:15 AM 52.0 °F 51.8 °F 99% 29.93 in 10.0 mi Calm Calm - N/A   Clear
4:35 AM 51.6 °F 51.6 °F 100% 29.93 in 7.0 mi Calm Calm - N/A   Clear
4:55 AM 51.6 °F 51.6 °F 100% 29.93 in 1.5 mi Calm Calm - N/A   Mist
5:15 AM 51.1 °F 51.1 °F 100% 29.93 in 5.0 mi Calm Calm - N/A   Clear
5:35 AM 51.8 °F 51.8 °F 100% 29.93 in 7.0 mi Calm Calm - N/A   Clear
5:55 AM 51.8 °F 51.8 °F 100% 29.95 in 7.0 mi Calm Calm - N/A   Clear
6:15 AM 51.6 °F 51.6 °F 100% 29.95 in 10.0 mi Calm Calm - N/A   Clear
6:35 AM 50.9 °F 50.9 °F 100% 29.95 in 7.0 mi Calm Calm - N/A   Clear
6:55 AM 50.9 °F 50.9 °F 100% 29.96 in 0.8 mi Calm Calm - N/A   Mist
7:15 AM 51.1 °F 51.1 °F 100% 29.96 in 7.0 mi Calm Calm - N/A   Clear
7:35 AM 53.4 °F 53.4 °F 100% 29.97 in 10.0 mi Calm Calm - N/A   Clear
7:55 AM 55.4 °F 55.2 °F 99% 29.98 in 10.0 mi Calm Calm - N/A   Clear
8:15 AM 57.0 °F 55.4 °F 94% 29.98 in 10.0 mi NE 3.5 mph - N/A   Clear
8:35 AM 58.6 °F 56.3 °F 92% 29.98 in 10.0 mi Calm Calm - N/A   Clear
8:55 AM 60.8 °F 55.6 °F 83% 29.99 in 10.0 mi East 5.8 mph - N/A   Clear
9:15 AM 62.6 °F 55.2 °F 77% 30.00 in 10.0 mi ENE 4.6 mph - N/A   Clear
9:35 AM 64.0 °F 54.1 °F 70% 30.00 in 10.0 mi ENE 6.9 mph - N/A   Clear
9:55 AM 65.5 °F 54.0 °F 66% 30.00 in 10.0 mi East 6.9 mph - N/A   Clear
10:15 AM 65.8 °F 54.1 °F 66% 30.00 in 10.0 mi Calm Calm - N/A   Clear
10:35 AM 68.5 °F 54.7 °F 61% 30.01 in 10.0 mi East 6.9 mph - N/A   Clear
10:55 AM 69.4 °F 53.4 °F 57% 30.00 in 10.0 mi ENE 6.9 mph - N/A   Clear
11:15 AM 70.3 °F 52.2 °F 52% 30.00 in 10.0 mi NE 6.9 mph - N/A   Clear
11:35 AM 71.1 °F 52.2 °F 51% 29.99 in 10.0 mi ENE 8.1 mph - N/A   Clear
11:55 AM 71.6 °F 51.4 °F 49% 29.99 in 10.0 mi East 9.2 mph - N/A   Clear
12:15 PM 71.8 °F 52.2 °F 50% 29.99 in 10.0 mi North 4.6 mph - N/A   Clear
12:35 PM 72.5 °F 52.5 °F 49% 29.98 in 10.0 mi NNE 12.7 mph - N/A   Clear
12:55 PM 72.1 °F 51.6 °F 48% 29.98 in 10.0 mi North 9.2 mph - N/A   Clear
1:15 PM 73.0 °F 51.8 °F 47% 29.97 in 10.0 mi NNE 8.1 mph - N/A   Clear
1:35 PM 72.9 °F 51.3 °F 47% 29.96 in 10.0 mi NNE 8.1 mph - N/A   Clear
1:55 PM 73.2 °F 50.5 °F 45% 29.96 in 10.0 mi North 4.6 mph - N/A   Clear
2:15 PM 74.3 °F 50.5 °F 43% 29.96 in 10.0 mi East 5.8 mph - N/A   Clear
2:35 PM 74.3 °F 50.9 °F 44% 29.95 in 10.0 mi NNE 8.1 mph - N/A   Clear
2:55 PM 74.8 °F 48.9 °F 40% 29.94 in 10.0 mi ENE 5.8 mph - N/A   Clear
3:15 PM 74.7 °F 48.7 °F 40% 29.94 in 10.0 mi ENE 8.1 mph - N/A   Clear
3:35 PM 75.0 °F 50.2 °F 42% 29.94 in 10.0 mi NE 6.9 mph - N/A   Clear
3:55 PM 75.0 °F 50.7 °F 42% 29.93 in 10.0 mi NE 6.9 mph - N/A   Clear
4:15 PM 75.2 °F 50.7 °F 42% 29.93 in 10.0 mi NE 3.5 mph - N/A   Clear
4:35 PM 74.7 °F 49.8 °F 42% 29.93 in 10.0 mi NE 6.9 mph - N/A   Clear
4:55 PM 74.5 °F 50.9 °F 43% 29.93 in 10.0 mi East 4.6 mph - N/A   Clear
5:15 PM 74.3 °F 51.4 °F 45% 29.93 in 10.0 mi NE 8.1 mph - N/A   Clear
5:35 PM 73.4 °F 51.8 °F 47% 29.93 in 10.0 mi NE 5.8 mph - N/A   Clear
5:55 PM 72.3 °F 52.5 °F 50% 29.93 in 10.0 mi Calm Calm - N/A   Clear
6:15 PM 71.1 °F 53.2 °F 53% 29.93 in 10.0 mi Calm Calm - N/A   Clear
6:35 PM 68.0 °F 54.0 °F 61% 29.94 in 10.0 mi Calm Calm - N/A   Clear
6:55 PM 65.7 °F 54.1 °F 66% 29.94 in 10.0 mi NE 4.6 mph - N/A   Clear
7:15 PM 62.2 °F 55.2 °F 78% 29.94 in 10.0 mi NNE 4.6 mph - N/A   Clear
7:35 PM 61.2 °F 55.0 °F 80% 29.95 in 10.0 mi Calm Calm - N/A   Clear
7:55 PM 60.3 °F 54.5 °F 81% 29.95 in 10.0 mi NNE 3.5 mph - N/A   Clear
8:15 PM 59.9 °F 54.5 °F 82% 29.96 in 10.0 mi Calm Calm - N/A   Clear
8:35 PM 60.1 °F 54.7 °F 82% 29.96 in 10.0 mi Calm Calm - N/A   Clear
8:55 PM 58.6 °F 55.4 °F 89% 29.96 in 10.0 mi Calm Calm - N/A   Clear
9:15 PM 57.6 °F 56.3 °F 96% 29.97 in 10.0 mi Calm Calm - N/A   Clear
9:35 PM 58.1 °F 55.0 °F 90% 29.97 in 10.0 mi Calm Calm - N/A   Clear
9:55 PM 56.5 °F 55.6 °F 97% 29.97 in 10.0 mi Calm Calm - N/A   Clear
10:15 PM 56.7 °F 55.6 °F 96% 29.97 in 10.0 mi Calm Calm - N/A   Clear
10:35 PM 55.6 °F 54.3 °F 96% 29.97 in 10.0 mi Calm Calm - N/A   Clear
10:55 PM 55.6 °F 54.7 °F 97% 29.97 in 10.0 mi Calm Calm - N/A   Clear
11:15 PM 56.3 °F 55.0 °F 96% 29.97 in 10.0 mi Calm Calm - N/A   Clear
11:35 PM 54.7 °F 54.7 °F 100% 29.98 in 10.0 mi Calm Calm - N/A   Clear
11:55 PM 53.6 °F 53.6 °F 100% 29.98 in 10.0 mi NNE 3.5 mph - N/A   Clear